CheckWX is a tool to help pilots better visualize weather data.  It is not intended as a substitute for an official pre-flight weather briefing.

18:04:13 UTC

KEGV METAR
Eagle River Union Airport
Eagle River, Wisconsin, USA
Current

9 mins ago

KEGV 241755Z AUTO 20007KT 180V240 10SM SCT085 16/00 A2982 RMK AO2 T01641004 10165 20038
Observed
Apr-24 @ 17:55 UTC
Wind
  • 200° at 7 KTS
Visibility
10 SM
Flight Rules
VFR
Cloud Levels
  • Scattered at 8,500' AGL
Temperature
16°C / 61°F
Dewpoint
-0°C / 32°F
Humidity
34%
Altimeter
29.82" Hg
Pressure
1009.82 hPa
Previous

29 mins ago

KEGV 241735Z AUTO 21008G18KT 10SM SCT095 16/00 A2984 RMK AO2 T01641004
Observed
Apr-24 @ 17:35 UTC
Wind
  • 210° at 8 KTS
  • Gusting to 18 KTS
Visibility
10 SM
Flight Rules
VFR
Cloud Levels
  • Scattered at 9,500' AGL
Temperature
16°C / 61°F
Dewpoint
-0°C / 32°F
Humidity
34%
Altimeter
29.84" Hg
Pressure
1010.52 hPa
Previous

49 mins ago

KEGV 241715Z AUTO 22009KT 10SM SCT095 15/00 A2984 RMK AO2 T01521002
Observed
Apr-24 @ 17:15 UTC
Wind
  • 220° at 9 KTS
Visibility
10 SM
Flight Rules
VFR
Cloud Levels
  • Scattered at 9,500' AGL
Temperature
15°C / 59°F
Dewpoint
-0°C / 32°F
Humidity
36%
Altimeter
29.84" Hg
Pressure
1010.52 hPa